Here is the Quick Look data you requested

The Data originates at the National Weather Service, and is made available here by the UAlbany Department of Atmospheric and Environmental Sciences

Surface Observations

KAKQ 210954Z AUTO 19003KT 9SM CLR 23/22 A3003 RMK AO2 SLP169 T02280217 $=
KAVC 210955Z AUTO 00000KT 3SM BKN022 23/22 A3011 RMK AO2 T02300220=
KBCB 210955Z AUTO 00000KT 10SM BKN090 BKN120 20/20 A3013 RMK AO2 T02000200=
KCHO 210953Z 22003KT 9SM CLR 22/20 A3001 RMK AO2 SLP154 T02220200=
KCJR 210955Z AUTO 19003KT 10SM CLR 21/20 A3000 RMK AO2 T02120204=
KCPK 210955Z AUTO 20004KT 10SM CLR 22/22 A3005 RMK AO2 T02210215=
KDAA 210956Z AUTO 00000KT 10SM CLR 20/20 A2998 RMK AO2 SLP155 T02040196 $=
KDAN 210953Z AUTO VRB03KT 10SM FEW013 FEW026 BKN031 22/21 A3005 RMK AO2 SLP164
 T02170206=
KDCA 210952Z 21007KT 10SM FEW140 BKN250 23/20 A2998 RMK AO2 SLP151 T02280200 $=
KEZF 210955Z AUTO 20006KT 10SM CLR 23/23 A2998 RMK AO2 T02250225=
KFAF 210956Z AUTO 21006KT 10SM FEW180 BKN200 25/20 A3001 RMK AO2 SLP165
 T02540202 $=
KFKN 210955Z AUTO 22004KT 10SM CLR 23/23 A3006 RMK AO2 T02300227=
KFVX 210955Z AUTO 21005KT 10SM CLR 22/21 A3003 RMK AO2 T02210210=
KHEF 210956Z AUTO 00000KT 10SM CLR 20/19 A2999 RMK AO2 SLP159 T02000194=
KHLX 210955Z AUTO 22003KT 10SM SCT001 SCT100 19/18 A3012 RMK AO2 T01850180=
KHSP 210953Z AUTO 24010KT 10SM OVC100 19/19 A3016 RMK AO2=
KIAD 210952Z 17005KT 10SM FEW160 BKN250 21/19 A2998 RMK AO2 SLP148 T02060194=
KJYO 210955Z AUTO 00000KT 10SM CLR 19/19 A2999 RMK AO2=
KLFI 210956Z 24008KT 7SM BKN180 25/24 A3003 RMK AO2A SLP175 T02540236 $=
KLKU 210955Z AUTO 18004KT 10SM CLR 21/21 A3005 RMK AO2 T02120207=
KLNP 210955Z AUTO 23005KT 10SM SCT100 19/18 A3016 RMK AO2=
KLYH 210954Z AUTO 19004KT 10SM CLR 21/21 A3006 RMK AO2 SLP167 T02110206=
KMFV 210955Z AUTO 20004KT 10SM CLR 24/22 A3002 RMK AO2 T02430222=
KMKJ 210955Z AUTO 00000KT 5SM BR CLR 18/18 A3016 RMK AO2 T01800180=
KMTV 210956Z AUTO 00000KT 10SM OVC014 22/22 A3008 RMK AO2=
KNGU 210959Z 22008KT 10SM SCT170 BKN210 25/23 A3005 RMK AO2 SLP175 T02500228
KNTU 210956Z 23006KT 10SM BKN200 23/22 A3004 RMK AO2 SLP173 T02330222=
KNYG 210956Z AUTO 24004KT 10SM CLR 23/21 A2999 RMK AO2 SLP157 T02280211 $=
KOFP 210954Z AUTO 20006KT 10SM CLR 23/21 A3003 RMK AO2 SLP165 T02330211=
KOKV 210955Z AUTO 00000KT 10SM CLR 19/18 A2997 RMK AO2=
KOMH 210955Z AUTO 20004KT 10SM CLR 20/20 A3000 RMK AO2=
KORF 210951Z 21008KT 10SM CLR 25/23 A3004 RMK AO2 SLP171 T02500228=
KPHF 210954Z 22010KT 10SM CLR 26/22 A3003 RMK AO2 SLP168 T02560222=
KPSK 210955Z AUTO 27003KT 10SM BKN120 20/20 A3012 RMK AO2 T02030196=
KRIC 210954Z 20006KT 10SM SCT130 BKN170 BKN300 23/22 A3002 RMK AO2 SLP169
 T02330217=
KROA 210954Z 29003KT 10SM SCT027 SCT150 22/19 A3006 RMK AO2 SLP167 T02170194=
KSFQ 210955Z AUTO 00000KT 10SM CLR 24/24 A3006 RMK AO2 T02380236=
KSHD 210950Z AUTO 18003KT 7SM CLR 19/19 A3005 RMK AO2 T01910190=
KVJI 210955Z AUTO 00000KT 7SM CLR 19/19 A3013 RMK AO2 T01870187=
KWAL 210954Z AUTO 19008KT 10SM CLR 26/23 A3002 RMK AO2 SLP163 T02560228=